Terminal Aerodrome Forecast
Issued by NWS Rapid City, SD

Home | Current Version | Previous Version | Text Only | Print | Product List | Glossary Off
Versions: 1 2 3 4 5 6 7 8 9 10 11 12 13 14 15 16 17 18

000
FTUS43 KUNR 271720
TAFRAP
TAF
KRAP 271720Z 2718/2818 17015KT P6SM BKN060
      TEMPO 2719/2723 3SM TSRA BKN040CB
     FM280600 24008KT P6SM BKN150=

USA.gov is the U.S. government's official web portal to all federal, state and local government web resources and services.